sensor_id;sensor_type;location;lat;lon;timestamp;temperature;humidity
947;DHT22;460;48.734;9.152;2024-03-17T00:01:11;6.30;99.90
947;DHT22;460;48.734;9.152;2024-03-17T00:03:37;6.40;99.90
947;DHT22;460;48.734;9.152;2024-03-17T00:06:05;6.50;99.90
947;DHT22;460;48.734;9.152;2024-03-17T00:08:31;6.60;99.90
947;DHT22;460;48.734;9.152;2024-03-17T00:10:58;6.60;99.90
947;DHT22;460;48.734;9.152;2024-03-17T00:13:25;6.60;99.90
947;DHT22;460;48.734;9.152;2024-03-17T00:15:51;6.50;99.90
947;DHT22;460;48.734;9.152;2024-03-17T00:18:17;6.40;99.90
947;DHT22;460;48.734;9.152;2024-03-17T00:20:44;6.50;99.90
947;DHT22;460;48.734;9.152;2024-03-17T00:23:11;6.40;99.90
947;DHT22;460;48.734;9.152;2024-03-17T00:25:38;6.50;99.90
947;DHT22;460;48.734;9.152;2024-03-17T00:28:05;6.40;99.90
947;DHT22;460;48.734;9.152;2024-03-17T00:30:32;6.40;99.90
947;DHT22;460;48.734;9.152;2024-03-17T00:32:58;6.40;99.90
947;DHT22;460;48.734;9.152;2024-03-17T00:35:25;6.40;99.90
947;DHT22;460;48.734;9.152;2024-03-17T00:37:51;6.30;99.90
947;DHT22;460;48.734;9.152;2024-03-17T00:40:20;6.50;99.90
947;DHT22;460;48.734;9.152;2024-03-17T00:42:46;6.40;99.90
947;DHT22;460;48.734;9.152;2024-03-17T00:45:13;6.30;99.90
947;DHT22;460;48.734;9.152;2024-03-17T00:47:39;6.30;99.90
947;DHT22;460;48.734;9.152;2024-03-17T00:50:07;6.20;99.90
947;DHT22;460;48.734;9.152;2024-03-17T00:52:34;6.20;99.90
947;DHT22;460;48.734;9.152;2024-03-17T00:55:01;6.10;99.90
947;DHT22;460;48.734;9.152;2024-03-17T00:57:28;6.20;99.90
947;DHT22;460;48.734;9.152;2024-03-17T00:59:55;6.20;99.90
947;DHT22;460;48.734;9.152;2024-03-17T01:02:22;6.40;99.90
947;DHT22;460;48.734;9.152;2024-03-17T01:04:48;6.40;99.90
947;DHT22;460;48.734;9.152;2024-03-17T01:07:14;6.50;99.90
947;DHT22;460;48.734;9.152;2024-03-17T01:09:41;6.50;99.90
947;DHT22;460;48.734;9.152;2024-03-17T01:12:07;6.30;99.90
947;DHT22;460;48.734;9.152;2024-03-17T01:14:35;6.30;99.90
947;DHT22;460;48.734;9.152;2024-03-17T01:17:02;6.30;99.90
947;DHT22;460;48.734;9.152;2024-03-17T01:19:30;6.30;99.90
947;DHT22;460;48.734;9.152;2024-03-17T01:21:56;6.40;99.90
947;DHT22;460;48.734;9.152;2024-03-17T01:24:23;6.50;99.90
947;DHT22;460;48.734;9.152;2024-03-17T01:26:50;6.40;99.90
947;DHT22;460;48.734;9.152;2024-03-17T01:29:18;6.40;99.90
947;DHT22;460;48.734;9.152;2024-03-17T01:31:45;6.40;99.90
947;DHT22;460;48.734;9.152;2024-03-17T01:34:12;6.40;99.90
947;DHT22;460;48.734;9.152;2024-03-17T01:36:38;6.40;99.90
947;DHT22;460;48.734;9.152;2024-03-17T01:39:05;6.40;99.90
947;DHT22;460;48.734;9.152;2024-03-17T01:41:31;6.40;99.90
947;DHT22;460;48.734;9.152;2024-03-17T01:43:58;6.40;99.90
947;DHT22;460;48.734;9.152;2024-03-17T01:46:24;6.40;99.90
947;DHT22;460;48.734;9.152;2024-03-17T01:48:53;6.40;99.90
947;DHT22;460;48.734;9.152;2024-03-17T01:51:19;6.40;99.90
947;DHT22;460;48.734;9.152;2024-03-17T01:53:46;6.50;99.90
947;DHT22;460;48.734;9.152;2024-03-17T01:56:14;6.50;99.90
947;DHT22;460;48.734;9.152;2024-03-17T01:58:44;6.50;99.90
947;DHT22;460;48.734;9.152;2024-03-17T02:01:10;6.60;99.90
947;DHT22;460;48.734;9.152;2024-03-17T02:03:40;6.60;99.90
947;DHT22;460;48.734;9.152;2024-03-17T02:06:07;6.60;99.90
947;DHT22;460;48.734;9.152;2024-03-17T02:08:46;6.70;99.90
947;DHT22;460;48.734;9.152;2024-03-17T02:11:24;6.60;99.90
947;DHT22;460;48.734;9.152;2024-03-17T02:13:52;6.70;99.90
947;DHT22;460;48.734;9.152;2024-03-17T02:16:18;6.60;99.90
947;DHT22;460;48.734;9.152;2024-03-17T02:18:46;6.60;99.90
947;DHT22;460;48.734;9.152;2024-03-17T02:21:15;6.70;99.90
947;DHT22;460;48.734;9.152;2024-03-17T02:23:43;6.70;99.90
947;DHT22;460;48.734;9.152;2024-03-17T02:26:11;6.70;99.90
947;DHT22;460;48.734;9.152;2024-03-17T02:28:40;6.70;99.90
947;DHT22;460;48.734;9.152;2024-03-17T02:31:10;6.70;99.90
947;DHT22;460;48.734;9.152;2024-03-17T02:33:38;6.80;99.90
947;DHT22;460;48.734;9.152;2024-03-17T02:36:05;6.80;99.90
947;DHT22;460;48.734;9.152;2024-03-17T02:38:35;6.70;99.90
947;DHT22;460;48.734;9.152;2024-03-17T02:41:21;6.80;99.90
947;DHT22;460;48.734;9.152;2024-03-17T02:43:49;6.80;99.90
947;DHT22;460;48.734;9.152;2024-03-17T02:46:17;6.90;99.90
947;DHT22;460;48.734;9.152;2024-03-17T02:48:46;6.90;99.90
947;DHT22;460;48.734;9.152;2024-03-17T02:51:14;6.80;99.90
947;DHT22;460;48.734;9.152;2024-03-17T02:53:42;6.80;99.90
947;DHT22;460;48.734;9.152;2024-03-17T02:56:09;6.90;99.90
947;DHT22;460;48.734;9.152;2024-03-17T02:58:39;6.90;99.90
947;DHT22;460;48.734;9.152;2024-03-17T03:01:08;6.90;99.90
947;DHT22;460;48.734;9.152;2024-03-17T03:03:36;6.80;99.90
947;DHT22;460;48.734;9.152;2024-03-17T03:06:04;6.80;99.90
947;DHT22;460;48.734;9.152;2024-03-17T03:08:34;6.80;99.90
947;DHT22;460;48.734;9.152;2024-03-17T03:11:03;6.80;99.90
947;DHT22;460;48.734;9.152;2024-03-17T03:13:30;6.70;99.90
947;DHT22;460;48.734;9.152;2024-03-17T03:15:58;6.60;99.90
947;DHT22;460;48.734;9.152;2024-03-17T03:18:26;6.60;99.90
947;DHT22;460;48.734;9.152;2024-03-17T03:20:53;6.60;99.90
947;DHT22;460;48.734;9.152;2024-03-17T03:23:24;6.60;99.90
947;DHT22;460;48.734;9.152;2024-03-17T03:25:54;6.50;99.90
947;DHT22;460;48.734;9.152;2024-03-17T03:28:23;6.40;99.90
947;DHT22;460;48.734;9.152;2024-03-17T03:30:50;6.50;99.90
947;DHT22;460;48.734;9.152;2024-03-17T03:33:20;6.40;99.90
947;DHT22;460;48.734;9.152;2024-03-17T03:35:48;6.40;99.90
947;DHT22;460;48.734;9.152;2024-03-17T03:38:17;6.40;99.90
947;DHT22;460;48.734;9.152;2024-03-17T03:40:46;6.40;99.90
947;DHT22;460;48.734;9.152;2024-03-17T03:43:15;6.40;99.90
947;DHT22;460;48.734;9.152;2024-03-17T03:45:43;6.30;99.90
947;DHT22;460;48.734;9.152;2024-03-17T03:48:12;6.30;99.90
947;DHT22;460;48.734;9.152;2024-03-17T03:50:43;6.30;99.90
947;DHT22;460;48.734;9.152;2024-03-17T03:53:11;6.20;99.90
947;DHT22;460;48.734;9.152;2024-03-17T03:55:39;6.20;99.90
947;DHT22;460;48.734;9.152;2024-03-17T03:58:07;6.10;99.90
947;DHT22;460;48.734;9.152;2024-03-17T04:00:34;6.10;99.90
947;DHT22;460;48.734;9.152;2024-03-17T04:03:01;6.30;99.90
947;DHT22;460;48.734;9.152;2024-03-17T04:05:28;6.30;99.90
947;DHT22;460;48.734;9.152;2024-03-17T04:07:56;6.30;99.90
947;DHT22;460;48.734;9.152;2024-03-17T04:10:23;6.30;99.90
947;DHT22;460;48.734;9.152;2024-03-17T04:12:50;6.30;99.90
947;DHT22;460;48.734;9.152;2024-03-17T04:15:17;6.40;99.90
947;DHT22;460;48.734;9.152;2024-03-17T04:17:44;6.30;99.90
947;DHT22;460;48.734;9.152;2024-03-17T04:20:11;6.30;99.90
947;DHT22;460;48.734;9.152;2024-03-17T04:22:39;6.20;99.90
947;DHT22;460;48.734;9.152;2024-03-17T04:25:08;6.30;99.90
947;DHT22;460;48.734;9.152;2024-03-17T04:27:35;6.30;99.90
947;DHT22;460;48.734;9.152;2024-03-17T04:30:02;6.30;99.90
947;DHT22;460;48.734;9.152;2024-03-17T04:32:31;6.40;99.90
947;DHT22;460;48.734;9.152;2024-03-17T04:34:59;6.40;99.90
947;DHT22;460;48.734;9.152;2024-03-17T04:37:24;6.40;99.90
947;DHT22;460;48.734;9.152;2024-03-17T04:39:51;6.40;99.90
947;DHT22;460;48.734;9.152;2024-03-17T04:42:19;6.30;99.90
947;DHT22;460;48.734;9.152;2024-03-17T04:44:46;6.30;99.90
947;DHT22;460;48.734;9.152;2024-03-17T04:47:13;6.40;99.90
947;DHT22;460;48.734;9.152;2024-03-17T04:49:41;6.40;99.90
947;DHT22;460;48.734;9.152;2024-03-17T04:52:10;6.40;99.90
947;DHT22;460;48.734;9.152;2024-03-17T04:54:37;6.30;99.90
947;DHT22;460;48.734;9.152;2024-03-17T04:57:04;6.30;99.90
947;DHT22;460;48.734;9.152;2024-03-17T04:59:34;6.30;99.90
947;DHT22;460;48.734;9.152;2024-03-17T05:02:01;6.40;99.90
947;DHT22;460;48.734;9.152;2024-03-17T05:04:28;6.30;99.90
947;DHT22;460;48.734;9.152;2024-03-17T05:06:56;6.20;99.90
947;DHT22;460;48.734;9.152;2024-03-17T05:09:23;6.20;99.90
947;DHT22;460;48.734;9.152;2024-03-17T05:11:50;6.20;99.90
947;DHT22;460;48.734;9.152;2024-03-17T05:14:18;6.10;99.90
947;DHT22;460;48.734;9.152;2024-03-17T05:16:48;6.10;99.90
947;DHT22;460;48.734;9.152;2024-03-17T05:19:15;6.10;99.90
947;DHT22;460;48.734;9.152;2024-03-17T05:21:43;5.90;99.90
947;DHT22;460;48.734;9.152;2024-03-17T05:24:10;6.00;99.90
947;DHT22;460;48.734;9.152;2024-03-17T05:26:37;6.10;99.90
947;DHT22;460;48.734;9.152;2024-03-17T05:29:04;6.10;99.90
947;DHT22;460;48.734;9.152;2024-03-17T05:31:31;6.10;99.90
947;DHT22;460;48.734;9.152;2024-03-17T05:33:59;6.20;99.90
947;DHT22;460;48.734;9.152;2024-03-17T05:36:26;6.30;99.90
947;DHT22;460;48.734;9.152;2024-03-17T05:38:58;6.20;99.90
947;DHT22;460;48.734;9.152;2024-03-17T05:41:24;6.20;99.90
947;DHT22;460;48.734;9.152;2024-03-17T05:43:52;6.20;99.90
947;DHT22;460;48.734;9.152;2024-03-17T05:46:18;6.20;99.90
947;DHT22;460;48.734;9.152;2024-03-17T05:48:45;6.20;99.90
947;DHT22;460;48.734;9.152;2024-03-17T05:51:13;6.20;99.90
947;DHT22;460;48.734;9.152;2024-03-17T05:53:41;6.10;99.90
947;DHT22;460;48.734;9.152;2024-03-17T05:56:10;6.10;99.90
947;DHT22;460;48.734;9.152;2024-03-17T05:58:38;6.20;99.90
947;DHT22;460;48.734;9.152;2024-03-17T06:01:05;6.10;99.90
947;DHT22;460;48.734;9.152;2024-03-17T06:03:33;6.10;99.90
947;DHT22;460;48.734;9.152;2024-03-17T06:06:01;6.10;99.90
947;DHT22;460;48.734;9.152;2024-03-17T06:08:30;6.20;99.90
947;DHT22;460;48.734;9.152;2024-03-17T06:10:57;6.10;99.90
947;DHT22;460;48.734;9.152;2024-03-17T06:13:25;6.20;99.90
947;DHT22;460;48.734;9.152;2024-03-17T06:15:53;6.20;99.90
947;DHT22;460;48.734;9.152;2024-03-17T06:18:21;6.20;99.90
947;DHT22;460;48.734;9.152;2024-03-17T06:20:49;6.30;99.90
947;DHT22;460;48.734;9.152;2024-03-17T06:23:16;6.40;99.90
947;DHT22;460;48.734;9.152;2024-03-17T06:25:45;6.40;99.90
947;DHT22;460;48.734;9.152;2024-03-17T06:28:13;6.50;99.90
947;DHT22;460;48.734;9.152;2024-03-17T06:30:40;6.60;99.90
947;DHT22;460;48.734;9.152;2024-03-17T06:33:08;6.60;99.90
947;DHT22;460;48.734;9.152;2024-03-17T06:35:36;6.70;99.90
947;DHT22;460;48.734;9.152;2024-03-17T06:38:03;6.80;99.90
947;DHT22;460;48.734;9.152;2024-03-17T06:40:30;6.90;99.90
947;DHT22;460;48.734;9.152;2024-03-17T06:42:58;6.80;99.90
947;DHT22;460;48.734;9.152;2024-03-17T06:45:25;7.10;99.90
947;DHT22;460;48.734;9.152;2024-03-17T06:47:52;7.20;99.90
947;DHT22;460;48.734;9.152;2024-03-17T06:50:20;7.40;99.90
947;DHT22;460;48.734;9.152;2024-03-17T06:52:47;7.40;99.90
947;DHT22;460;48.734;9.152;2024-03-17T06:55:14;7.50;99.90
947;DHT22;460;48.734;9.152;2024-03-17T06:57:41;7.50;99.90
947;DHT22;460;48.734;9.152;2024-03-17T07:00:13;7.70;99.90
947;DHT22;460;48.734;9.152;2024-03-17T07:02:42;7.70;99.90
947;DHT22;460;48.734;9.152;2024-03-17T07:05:12;7.70;99.90
947;DHT22;460;48.734;9.152;2024-03-17T07:07:40;7.70;99.90
947;DHT22;460;48.734;9.152;2024-03-17T07:10:08;7.80;99.90
947;DHT22;460;48.734;9.152;2024-03-17T07:12:36;8.00;99.90
947;DHT22;460;48.734;9.152;2024-03-17T07:15:04;8.20;99.90
947;DHT22;460;48.734;9.152;2024-03-17T07:17:32;8.40;99.90
947;DHT22;460;48.734;9.152;2024-03-17T07:19:59;8.50;99.90
947;DHT22;460;48.734;9.152;2024-03-17T07:22:26;8.60;99.90
947;DHT22;460;48.734;9.152;2024-03-17T07:24:53;8.70;99.90
947;DHT22;460;48.734;9.152;2024-03-17T07:27:22;8.70;99.90
947;DHT22;460;48.734;9.152;2024-03-17T07:29:49;8.80;99.90
947;DHT22;460;48.734;9.152;2024-03-17T07:32:16;8.80;99.90
947;DHT22;460;48.734;9.152;2024-03-17T07:34:44;8.90;99.90
947;DHT22;460;48.734;9.152;2024-03-17T07:37:10;8.90;99.90
947;DHT22;460;48.734;9.152;2024-03-17T07:39:37;9.00;99.90
947;DHT22;460;48.734;9.152;2024-03-17T07:42:04;9.20;99.90
947;DHT22;460;48.734;9.152;2024-03-17T07:44:32;9.20;99.90
947;DHT22;460;48.734;9.152;2024-03-17T07:47:00;9.20;99.90
947;DHT22;460;48.734;9.152;2024-03-17T07:49:26;9.40;99.90
947;DHT22;460;48.734;9.152;2024-03-17T07:51:54;9.60;99.90
947;DHT22;460;48.734;9.152;2024-03-17T07:54:23;9.80;99.90
947;DHT22;460;48.734;9.152;2024-03-17T07:56:50;9.90;99.90
947;DHT22;460;48.734;9.152;2024-03-17T07:59:17;10.00;99.90
947;DHT22;460;48.734;9.152;2024-03-17T08:01:43;10.00;99.90
947;DHT22;460;48.734;9.152;2024-03-17T08:04:10;10.00;99.90
947;DHT22;460;48.734;9.152;2024-03-17T08:06:38;10.00;99.90
947;DHT22;460;48.734;9.152;2024-03-17T08:09:07;10.10;99.90
947;DHT22;460;48.734;9.152;2024-03-17T08:11:34;10.00;99.90
947;DHT22;460;48.734;9.152;2024-03-17T08:14:01;10.00;99.90
947;DHT22;460;48.734;9.152;2024-03-17T08:16:28;10.00;99.90
947;DHT22;460;48.734;9.152;2024-03-17T08:18:55;10.00;99.90
947;DHT22;460;48.734;9.152;2024-03-17T08:21:22;10.10;99.90
947;DHT22;460;48.734;9.152;2024-03-17T08:23:49;10.20;99.90
947;DHT22;460;48.734;9.152;2024-03-17T08:26:18;10.30;99.90
947;DHT22;460;48.734;9.152;2024-03-17T08:28:45;10.40;99.90
947;DHT22;460;48.734;9.152;2024-03-17T08:31:13;10.30;99.90
947;DHT22;460;48.734;9.152;2024-03-17T08:33:41;10.40;99.90
947;DHT22;460;48.734;9.152;2024-03-17T08:36:09;10.40;99.90
947;DHT22;460;48.734;9.152;2024-03-17T08:38:37;10.50;99.90
947;DHT22;460;48.734;9.152;2024-03-17T08:41:05;10.50;99.90
947;DHT22;460;48.734;9.152;2024-03-17T08:43:34;10.50;99.90
947;DHT22;460;48.734;9.152;2024-03-17T08:46:03;10.60;99.90
947;DHT22;460;48.734;9.152;2024-03-17T08:48:31;10.60;99.90
947;DHT22;460;48.734;9.152;2024-03-17T08:50:59;10.70;99.90
947;DHT22;460;48.734;9.152;2024-03-17T08:53:27;10.70;99.90
947;DHT22;460;48.734;9.152;2024-03-17T08:55:55;10.80;99.90
947;DHT22;460;48.734;9.152;2024-03-17T08:58:22;10.80;99.90
947;DHT22;460;48.734;9.152;2024-03-17T09:00:50;10.90;99.90
947;DHT22;460;48.734;9.152;2024-03-17T09:03:18;10.90;99.90
947;DHT22;460;48.734;9.152;2024-03-17T09:05:46;11.10;99.90
947;DHT22;460;48.734;9.152;2024-03-17T09:08:16;11.10;99.90
947;DHT22;460;48.734;9.152;2024-03-17T09:10:46;11.20;99.90
947;DHT22;460;48.734;9.152;2024-03-17T09:13:14;11.30;99.90
947;DHT22;460;48.734;9.152;2024-03-17T09:15:41;11.30;99.90
947;DHT22;460;48.734;9.152;2024-03-17T09:18:17;11.30;99.90
947;DHT22;460;48.734;9.152;2024-03-17T09:20:44;11.40;99.90
947;DHT22;460;48.734;9.152;2024-03-17T09:23:11;11.60;99.80
947;DHT22;460;48.734;9.152;2024-03-17T09:25:38;11.70;99.40
947;DHT22;460;48.734;9.152;2024-03-17T09:28:05;11.70;97.90
947;DHT22;460;48.734;9.152;2024-03-17T09:30:32;11.80;97.20
947;DHT22;460;48.734;9.152;2024-03-17T09:32:59;11.80;96.90
947;DHT22;460;48.734;9.152;2024-03-17T09:35:27;11.80;96.30
947;DHT22;460;48.734;9.152;2024-03-17T09:37:54;11.80;96.60
947;DHT22;460;48.734;9.152;2024-03-17T09:40:21;11.80;95.40
947;DHT22;460;48.734;9.152;2024-03-17T09:42:48;12.00;94.50
947;DHT22;460;48.734;9.152;2024-03-17T09:45:15;11.90;93.20
947;DHT22;460;48.734;9.152;2024-03-17T09:47:43;12.00;94.10
947;DHT22;460;48.734;9.152;2024-03-17T09:50:13;12.00;92.90
947;DHT22;460;48.734;9.152;2024-03-17T09:52:44;12.00;92.40
947;DHT22;460;48.734;9.152;2024-03-17T09:55:15;12.10;90.60
947;DHT22;460;48.734;9.152;2024-03-17T09:57:43;12.10;91.80
947;DHT22;460;48.734;9.152;2024-03-17T10:00:11;12.10;92.30
947;DHT22;460;48.734;9.152;2024-03-17T10:02:42;12.10;92.90
947;DHT22;460;48.734;9.152;2024-03-17T10:05:18;12.10;93.20
947;DHT22;460;48.734;9.152;2024-03-17T10:07:47;12.10;93.00
947;DHT22;460;48.734;9.152;2024-03-17T10:10:14;12.20;92.00
947;DHT22;460;48.734;9.152;2024-03-17T10:12:43;12.30;91.70
947;DHT22;460;48.734;9.152;2024-03-17T10:15:11;12.40;91.80
947;DHT22;460;48.734;9.152;2024-03-17T10:17:38;12.30;91.30
947;DHT22;460;48.734;9.152;2024-03-17T10:20:12;12.40;91.10
947;DHT22;460;48.734;9.152;2024-03-17T10:22:53;12.30;91.30
947;DHT22;460;48.734;9.152;2024-03-17T10:25:24;12.50;92.10
947;DHT22;460;48.734;9.152;2024-03-17T10:27:50;12.50;91.80
947;DHT22;460;48.734;9.152;2024-03-17T10:30:18;12.50;92.20
947;DHT22;460;48.734;9.152;2024-03-17T10:32:52;12.50;91.30
947;DHT22;460;48.734;9.152;2024-03-17T10:35:27;12.60;91.50
947;DHT22;460;48.734;9.152;2024-03-17T10:37:57;12.70;91.10
947;DHT22;460;48.734;9.152;2024-03-17T10:40:25;12.70;91.00
947;DHT22;460;48.734;9.152;2024-03-17T10:42:52;12.70;91.10
947;DHT22;460;48.734;9.152;2024-03-17T10:45:19;12.80;91.60
947;DHT22;460;48.734;9.152;2024-03-17T10:47:48;12.90;91.40
947;DHT22;460;48.734;9.152;2024-03-17T10:50:18;13.00;90.70
947;DHT22;460;48.734;9.152;2024-03-17T10:52:46;13.00;90.90
947;DHT22;460;48.734;9.152;2024-03-17T10:55:22;12.90;90.40
947;DHT22;460;48.734;9.152;2024-03-17T10:57:50;12.90;90.20
947;DHT22;460;48.734;9.152;2024-03-17T11:00:18;12.90;90.90
947;DHT22;460;48.734;9.152;2024-03-17T11:02:48;13.10;90.30
947;DHT22;460;48.734;9.152;2024-03-17T11:05:17;13.00;90.40
947;DHT22;460;48.734;9.152;2024-03-17T11:07:46;13.10;90.30
947;DHT22;460;48.734;9.152;2024-03-17T11:10:21;13.10;90.70
947;DHT22;460;48.734;9.152;2024-03-17T11:12:49;13.20;91.40
947;DHT22;460;48.734;9.152;2024-03-17T11:15:35;13.30;91.20
947;DHT22;460;48.734;9.152;2024-03-17T11:18:35;13.40;90.30
947;DHT22;460;48.734;9.152;2024-03-17T11:21:07;13.50;90.70
947;DHT22;460;48.734;9.152;2024-03-17T11:23:36;13.30;90.00
947;DHT22;460;48.734;9.152;2024-03-17T11:26:06;13.30;90.30
947;DHT22;460;48.734;9.152;2024-03-17T11:28:50;13.50;91.00
947;DHT22;460;48.734;9.152;2024-03-17T11:31:38;13.50;89.50
947;DHT22;460;48.734;9.152;2024-03-17T11:34:29;13.30;90.40
947;DHT22;460;48.734;9.152;2024-03-17T11:36:56;13.40;91.30
947;DHT22;460;48.734;9.152;2024-03-17T11:42:31;13.20;90.50
947;DHT22;460;48.734;9.152;2024-03-17T11:45:03;13.30;90.90
947;DHT22;460;48.734;9.152;2024-03-17T11:47:39;13.30;90.40
947;DHT22;460;48.734;9.152;2024-03-17T11:50:07;13.40;90.90
947;DHT22;460;48.734;9.152;2024-03-17T11:52:35;13.50;90.00
947;DHT22;460;48.734;9.152;2024-03-17T11:55:01;13.50;90.70
947;DHT22;460;48.734;9.152;2024-03-17T11:57:28;13.60;91.00
947;DHT22;460;48.734;9.152;2024-03-17T11:59:56;13.80;90.30
947;DHT22;460;48.734;9.152;2024-03-17T12:02:25;13.70;91.00
947;DHT22;460;48.734;9.152;2024-03-17T12:04:52;13.70;90.80
947;DHT22;460;48.734;9.152;2024-03-17T12:07:21;13.70;90.80
947;DHT22;460;48.734;9.152;2024-03-17T12:09:49;13.40;87.90
947;DHT22;460;48.734;9.152;2024-03-17T12:12:17;13.40;88.40
947;DHT22;460;48.734;9.152;2024-03-17T12:14:45;13.60;90.60
947;DHT22;460;48.734;9.152;2024-03-17T12:17:14;13.90;90.00
947;DHT22;460;48.734;9.152;2024-03-17T12:19:41;13.90;89.60
947;DHT22;460;48.734;9.152;2024-03-17T12:22:15;13.80;89.40
947;DHT22;460;48.734;9.152;2024-03-17T12:24:43;13.80;87.50
947;DHT22;460;48.734;9.152;2024-03-17T12:27:17;13.70;87.50
947;DHT22;460;48.734;9.152;2024-03-17T12:29:43;13.80;90.00
947;DHT22;460;48.734;9.152;2024-03-17T12:32:16;13.80;88.60
947;DHT22;460;48.734;9.152;2024-03-17T12:34:43;13.70;88.40
947;DHT22;460;48.734;9.152;2024-03-17T12:37:16;13.60;89.00
947;DHT22;460;48.734;9.152;2024-03-17T12:39:43;13.70;90.40
947;DHT22;460;48.734;9.152;2024-03-17T12:42:11;13.70;90.20
947;DHT22;460;48.734;9.152;2024-03-17T12:44:40;13.60;89.00
947;DHT22;460;48.734;9.152;2024-03-17T12:47:15;13.60;87.50
947;DHT22;460;48.734;9.152;2024-03-17T12:49:46;13.50;86.90
947;DHT22;460;48.734;9.152;2024-03-17T12:52:20;13.50;86.50
947;DHT22;460;48.734;9.152;2024-03-17T12:54:56;13.50;86.30
947;DHT22;460;48.734;9.152;2024-03-17T12:57:47;13.70;89.10
947;DHT22;460;48.734;9.152;2024-03-17T13:00:32;13.70;87.80
947;DHT22;460;48.734;9.152;2024-03-17T13:02:59;13.80;84.50
947;DHT22;460;48.734;9.152;2024-03-17T13:05:28;13.80;87.00
947;DHT22;460;48.734;9.152;2024-03-17T13:07:55;13.60;85.10
947;DHT22;460;48.734;9.152;2024-03-17T13:10:24;13.60;85.90
947;DHT22;460;48.734;9.152;2024-03-17T13:12:59;13.50;83.20
947;DHT22;460;48.734;9.152;2024-03-17T13:15:27;13.60;83.00
947;DHT22;460;48.734;9.152;2024-03-17T13:17:54;13.70;84.50
947;DHT22;460;48.734;9.152;2024-03-17T13:20:21;13.80;87.20
947;DHT22;460;48.734;9.152;2024-03-17T13:22:49;13.70;84.30
947;DHT22;460;48.734;9.152;2024-03-17T13:25:17;13.80;88.40
947;DHT22;460;48.734;9.152;2024-03-17T13:27:45;13.90;87.30
947;DHT22;460;48.734;9.152;2024-03-17T13:30:12;13.80;87.00
947;DHT22;460;48.734;9.152;2024-03-17T13:32:39;13.70;86.20
947;DHT22;460;48.734;9.152;2024-03-17T13:35:14;13.90;87.20
947;DHT22;460;48.734;9.152;2024-03-17T13:37:41;14.00;87.00
947;DHT22;460;48.734;9.152;2024-03-17T13:40:11;14.00;86.30
947;DHT22;460;48.734;9.152;2024-03-17T13:42:38;13.90;85.00
947;DHT22;460;48.734;9.152;2024-03-17T13:45:05;14.00;86.60
947;DHT22;460;48.734;9.152;2024-03-17T13:47:36;14.10;85.80
947;DHT22;460;48.734;9.152;2024-03-17T13:50:03;14.20;85.50
947;DHT22;460;48.734;9.152;2024-03-17T13:52:36;14.10;83.50
947;DHT22;460;48.734;9.152;2024-03-17T13:55:03;14.20;86.50
947;DHT22;460;48.734;9.152;2024-03-17T13:57:33;14.20;85.40
947;DHT22;460;48.734;9.152;2024-03-17T14:00:00;14.30;84.70
947;DHT22;460;48.734;9.152;2024-03-17T14:02:27;14.10;84.10
947;DHT22;460;48.734;9.152;2024-03-17T14:04:54;14.00;84.20
947;DHT22;460;48.734;9.152;2024-03-17T14:07:21;14.00;86.60
947;DHT22;460;48.734;9.152;2024-03-17T14:09:48;13.90;83.90
947;DHT22;460;48.734;9.152;2024-03-17T14:12:15;13.90;85.50
947;DHT22;460;48.734;9.152;2024-03-17T14:14:43;14.00;86.80
947;DHT22;460;48.734;9.152;2024-03-17T14:17:10;14.00;86.60
947;DHT22;460;48.734;9.152;2024-03-17T14:19:39;14.00;85.40
947;DHT22;460;48.734;9.152;2024-03-17T14:22:06;14.10;85.60
947;DHT22;460;48.734;9.152;2024-03-17T14:24:38;14.20;84.70
947;DHT22;460;48.734;9.152;2024-03-17T14:27:12;14.40;86.40
947;DHT22;460;48.734;9.152;2024-03-17T14:29:39;14.40;85.30
947;DHT22;460;48.734;9.152;2024-03-17T14:32:07;14.40;87.70
947;DHT22;460;48.734;9.152;2024-03-17T14:34:34;14.50;86.70
947;DHT22;460;48.734;9.152;2024-03-17T14:37:03;14.70;84.10
947;DHT22;460;48.734;9.152;2024-03-17T14:39:30;15.00;83.30
947;DHT22;460;48.734;9.152;2024-03-17T14:41:56;14.90;86.50
947;DHT22;460;48.734;9.152;2024-03-17T14:44:24;14.90;85.10
947;DHT22;460;48.734;9.152;2024-03-17T14:46:50;14.90;84.90
947;DHT22;460;48.734;9.152;2024-03-17T14:49:19;14.90;86.30
947;DHT22;460;48.734;9.152;2024-03-17T14:51:45;15.00;85.60
947;DHT22;460;48.734;9.152;2024-03-17T14:54:13;15.00;85.70
947;DHT22;460;48.734;9.152;2024-03-17T14:56:39;14.90;87.80
947;DHT22;460;48.734;9.152;2024-03-17T14:59:06;14.70;84.90
947;DHT22;460;48.734;9.152;2024-03-17T15:01:34;14.50;82.60
947;DHT22;460;48.734;9.152;2024-03-17T15:04:01;14.70;86.90
947;DHT22;460;48.734;9.152;2024-03-17T15:06:29;15.10;87.20
947;DHT22;460;48.734;9.152;2024-03-17T15:08:56;14.80;82.20
947;DHT22;460;48.734;9.152;2024-03-17T15:11:23;15.00;85.40
947;DHT22;460;48.734;9.152;2024-03-17T15:13:50;14.90;83.70
947;DHT22;460;48.734;9.152;2024-03-17T15:16:16;14.80;86.40
947;DHT22;460;48.734;9.152;2024-03-17T15:18:44;14.70;84.40
947;DHT22;460;48.734;9.152;2024-03-17T15:21:11;14.60;84.50
947;DHT22;460;48.734;9.152;2024-03-17T15:23:39;14.60;87.10
947;DHT22;460;48.734;9.152;2024-03-17T15:26:07;14.40;85.10
947;DHT22;460;48.734;9.152;2024-03-17T15:28:34;14.30;86.60
947;DHT22;460;48.734;9.152;2024-03-17T15:31:05;14.20;84.60
947;DHT22;460;48.734;9.152;2024-03-17T15:33:32;14.10;85.40
947;DHT22;460;48.734;9.152;2024-03-17T15:36:03;14.00;87.60
947;DHT22;460;48.734;9.152;2024-03-17T15:38:30;14.20;89.60
947;DHT22;460;48.734;9.152;2024-03-17T15:41:02;14.20;90.00
947;DHT22;460;48.734;9.152;2024-03-17T15:43:31;14.20;88.30
947;DHT22;460;48.734;9.152;2024-03-17T15:45:59;14.20;89.90
947;DHT22;460;48.734;9.152;2024-03-17T15:48:26;14.10;89.90
947;DHT22;460;48.734;9.152;2024-03-17T15:50:54;13.90;89.40
947;DHT22;460;48.734;9.152;2024-03-17T15:53:22;13.80;90.30
947;DHT22;460;48.734;9.152;2024-03-17T15:55:53;13.80;90.80
947;DHT22;460;48.734;9.152;2024-03-17T15:58:21;13.80;90.80
947;DHT22;460;48.734;9.152;2024-03-17T16:00:49;13.80;90.90
947;DHT22;460;48.734;9.152;2024-03-17T16:03:16;13.70;90.50
947;DHT22;460;48.734;9.152;2024-03-17T16:05:45;13.70;90.50
947;DHT22;460;48.734;9.152;2024-03-17T16:08:13;13.60;90.50
947;DHT22;460;48.734;9.152;2024-03-17T16:10:41;13.50;90.80
947;DHT22;460;48.734;9.152;2024-03-17T16:13:08;13.50;90.60
947;DHT22;460;48.734;9.152;2024-03-17T16:15:36;13.50;90.70
947;DHT22;460;48.734;9.152;2024-03-17T16:18:04;13.40;91.20
947;DHT22;460;48.734;9.152;2024-03-17T16:20:57;13.30;91.70
947;DHT22;460;48.734;9.152;2024-03-17T16:23:27;13.10;91.40
947;DHT22;460;48.734;9.152;2024-03-17T16:25:56;13.10;91.90
947;DHT22;460;48.734;9.152;2024-03-17T16:28:24;13.10;91.60
947;DHT22;460;48.734;9.152;2024-03-17T16:30:53;13.10;91.70
947;DHT22;460;48.734;9.152;2024-03-17T16:33:22;13.10;92.00
947;DHT22;460;48.734;9.152;2024-03-17T16:35:49;13.10;92.20
947;DHT22;460;48.734;9.152;2024-03-17T16:38:17;13.10;92.60
947;DHT22;460;48.734;9.152;2024-03-17T16:40:44;13.00;92.60
947;DHT22;460;48.734;9.152;2024-03-17T16:43:17;12.90;92.70
947;DHT22;460;48.734;9.152;2024-03-17T16:45:56;12.90;93.00
947;DHT22;460;48.734;9.152;2024-03-17T16:48:27;12.80;92.80
947;DHT22;460;48.734;9.152;2024-03-17T16:50:54;12.80;93.30
947;DHT22;460;48.734;9.152;2024-03-17T16:53:21;12.70;93.20